createdAt,value
2022-11-15T00:00:01.568Z,94.65
2022-11-15T00:01:01.577Z,95.32
2022-11-15T00:02:01.627Z,95.17
2022-11-15T00:03:01.621Z,95.51
2022-11-15T00:04:01.639Z,95.17
2022-11-15T00:05:01.664Z,95.36
2022-11-15T00:06:01.694Z,95.27
2022-11-15T00:07:01.771Z,95.51
2022-11-15T00:08:01.787Z,95.36
2022-11-15T00:09:01.751Z,95.65
2022-11-15T00:10:01.782Z,95.56
2022-11-15T00:11:01.794Z,95.36
2022-11-15T00:12:01.835Z,95.56
2022-11-15T00:13:01.839Z,95.36
2022-11-15T00:14:01.862Z,95.46
2022-11-15T00:15:01.894Z,95.56
2022-11-15T00:16:01.904Z,95.75
2022-11-15T00:17:02.006Z,95.36
2022-11-15T00:18:01.953Z,96.12
2022-11-15T00:19:01.975Z,95.75
2022-11-15T00:20:01.998Z,95.84
2022-11-15T00:21:02.013Z,95.75
2022-11-15T00:22:02.032Z,96.08
2022-11-15T00:23:02.056Z,96.12
2022-11-15T00:24:02.077Z,95.94
2022-11-15T00:25:02.114Z,95.94
2022-11-15T00:26:02.129Z,96.22
2022-11-15T00:27:02.140Z,96.12
2022-11-15T00:28:02.164Z,96.55
2022-11-15T00:29:02.186Z,96.36
2022-11-15T00:30:02.207Z,96.22
2022-11-15T00:31:02.232Z,96.12
2022-11-15T00:32:02.254Z,95.84
2022-11-15T00:33:02.271Z,95.94
2022-11-15T00:34:02.296Z,96.70
2022-11-15T00:35:02.317Z,96.60
2022-11-15T00:36:02.335Z,96.32
2022-11-15T00:37:02.359Z,96.75
2022-11-15T00:38:02.382Z,96.32
2022-11-15T00:39:02.407Z,96.32
2022-11-15T00:40:02.426Z,96.70
2022-11-15T00:41:07.741Z,96.32
2022-11-15T00:42:09.655Z,96.32
2022-11-15T00:44:06.954Z,96.12
2022-11-15T00:45:06.485Z,96.12
2022-11-15T00:47:10.497Z,96.22
2022-11-15T00:48:10.514Z,95.94
2022-11-15T00:50:15.778Z,95.84
2022-11-15T00:51:14.547Z,96.03
2022-11-15T00:53:18.554Z,96.41
2022-11-15T00:54:18.602Z,96.12
2022-11-15T00:56:23.053Z,96.03
2022-11-15T00:57:22.579Z,96.12
2022-11-15T00:59:26.585Z,97.08
2022-11-15T01:00:26.601Z,96.80
2022-11-15T01:02:31.092Z,96.70
2022-11-15T01:03:30.941Z,96.51
2022-11-15T01:05:34.631Z,96.51
2022-11-15T01:06:34.646Z,96.41
2022-11-15T01:08:39.133Z,96.84
2022-11-15T01:09:38.665Z,96.80
2022-11-15T01:11:31.598Z,96.46
2022-11-15T01:12:31.610Z,96.56
2022-11-15T01:14:36.100Z,96.56
2022-11-15T01:15:35.630Z,97.13
2022-11-15T01:17:39.641Z,96.36
2022-11-15T01:18:39.652Z,95.98
2022-11-15T01:20:33.125Z,96.08
2022-11-15T01:21:32.797Z,95.98
2022-11-15T01:23:36.808Z,97.13
2022-11-15T01:24:36.822Z,96.75
2022-11-15T01:26:41.309Z,96.65
2022-11-15T01:27:40.841Z,96.56
2022-11-15T01:29:44.850Z,97.22
2022-11-15T01:30:44.862Z,96.94
2022-11-15T01:32:49.353Z,97.70
2022-11-15T01:33:48.883Z,97.80
2022-11-15T01:35:52.901Z,98.27
2022-11-15T01:36:52.912Z,98.18
2022-11-15T01:38:57.403Z,98.18
2022-11-15T01:39:56.941Z,97.80
2022-11-15T01:42:00.956Z,97.70
2022-11-15T01:43:00.967Z,98.08
2022-11-15T01:45:05.456Z,98.65
2022-11-15T01:46:04.996Z,98.56
2022-11-15T01:48:09.003Z,98.75
2022-11-15T01:49:09.013Z,98.56
2022-11-15T01:51:02.509Z,99.13
2022-11-15T01:52:01.969Z,98.94
2022-11-15T01:54:05.972Z,98.94
2022-11-15T01:55:05.994Z,99.04
2022-11-15T01:57:10.475Z,99.51
2022-11-15T01:58:10.012Z,99.60
2022-11-15T02:00:14.026Z,99.60
2022-11-15T02:01:14.117Z,99.89
2022-11-15T02:03:18.528Z,99.99
2022-11-15T02:04:18.060Z,99.99
2022-11-15T02:06:22.062Z,99.99
2022-11-15T02:07:22.165Z,99.99
2022-11-15T02:09:26.561Z,99.99
2022-11-15T02:10:26.098Z,99.99
2022-11-15T02:12:32.465Z,99.99
2022-11-15T02:13:30.431Z,99.99
2022-11-15T02:15:34.600Z,99.99
2022-11-15T02:16:34.133Z,99.99
2022-11-15T02:18:38.154Z,99.99
2022-11-15T02:19:38.165Z,99.99
2022-11-15T02:21:31.639Z,99.99
2022-11-15T02:22:31.110Z,99.99
2022-11-15T02:24:24.585Z,99.99
2022-11-15T02:25:24.254Z,99.99
2022-11-15T02:27:28.743Z,99.99
2022-11-15T02:28:28.280Z,99.99
2022-11-15T02:30:32.298Z,99.99
2022-11-15T02:31:32.312Z,99.99
2022-11-15T02:33:36.797Z,99.99
2022-11-15T02:34:36.338Z,99.99
2022-11-15T02:36:40.354Z,99.99
2022-11-15T02:37:40.369Z,99.99
2022-11-15T02:39:44.852Z,99.99
2022-11-15T02:40:44.392Z,99.99
2022-11-15T02:41:44.414Z,99.99
2022-11-15T02:42:44.438Z,99.99
2022-11-15T02:43:44.458Z,99.99
2022-11-15T02:44:44.490Z,99.99
2022-11-15T02:45:44.501Z,99.99
2022-11-15T02:46:44.526Z,99.99
2022-11-15T02:47:44.564Z,99.99
2022-11-15T02:48:44.570Z,99.99
2022-11-15T02:49:44.588Z,99.99
2022-11-15T02:50:44.612Z,99.99
2022-11-15T02:51:44.637Z,99.99
2022-11-15T02:52:44.655Z,99.99
2022-11-15T02:53:44.681Z,99.99
2022-11-15T02:54:44.699Z,99.99
2022-11-15T02:55:44.724Z,99.99
2022-11-15T02:56:44.744Z,99.99
2022-11-15T02:57:44.769Z,99.99
2022-11-15T02:58:44.788Z,99.99
2022-11-15T02:59:44.810Z,99.99
2022-11-15T03:00:44.864Z,99.99
2022-11-15T03:01:44.885Z,99.99
2022-11-15T03:02:44.881Z,99.99
2022-11-15T03:03:44.904Z,99.99
2022-11-15T03:04:44.922Z,99.99
2022-11-15T03:05:44.950Z,99.99
2022-11-15T03:06:45.021Z,99.99
2022-11-15T03:07:44.990Z,99.99
2022-11-15T03:08:45.012Z,99.99
2022-11-15T03:09:45.038Z,99.99
2022-11-15T03:10:45.060Z,99.99
2022-11-15T03:11:45.081Z,99.99
2022-11-15T03:12:45.107Z,99.99
2022-11-15T03:13:45.125Z,99.99
2022-11-15T03:14:45.147Z,99.99
2022-11-15T03:15:45.173Z,99.99
2022-11-15T03:16:45.190Z,99.99
2022-11-15T03:17:45.215Z,99.99
2022-11-15T03:18:45.240Z,99.99
2022-11-15T03:19:45.263Z,99.99
2022-11-15T03:20:45.284Z,99.99
2022-11-15T03:21:45.305Z,99.99
2022-11-15T03:22:45.326Z,99.99
2022-11-15T03:23:45.349Z,99.99
2022-11-15T03:24:45.372Z,99.99
2022-11-15T03:25:45.395Z,99.99
2022-11-15T03:26:45.420Z,99.99
2022-11-15T03:27:45.440Z,99.99
2022-11-15T03:28:45.460Z,99.99
2022-11-15T03:29:45.486Z,99.99
2022-11-15T03:30:45.508Z,99.99
2022-11-15T03:31:49.735Z,99.99
2022-11-15T03:32:45.554Z,99.99
2022-11-15T03:33:45.577Z,99.99
2022-11-15T03:34:45.598Z,99.99
2022-11-15T03:35:45.619Z,99.99
2022-11-15T03:36:45.643Z,99.99
2022-11-15T03:37:45.819Z,99.99
2022-11-15T03:38:45.687Z,99.99
2022-11-15T03:39:45.710Z,99.99
2022-11-15T03:40:45.735Z,99.99
2022-11-15T03:41:45.756Z,99.99
2022-11-15T03:42:45.778Z,99.99
2022-11-15T03:43:45.802Z,99.99
2022-11-15T03:44:45.824Z,99.99
2022-11-15T03:45:45.852Z,99.99
2022-11-15T03:46:45.868Z,99.99
2022-11-15T03:47:45.893Z,99.99
2022-11-15T03:48:45.913Z,99.99
2022-11-15T03:49:45.935Z,99.99
2022-11-15T03:50:45.963Z,99.99
2022-11-15T03:51:45.980Z,99.99
2022-11-15T03:52:46.004Z,99.99
2022-11-15T03:53:46.027Z,99.99
2022-11-15T03:54:46.048Z,99.99
2022-11-15T03:55:46.073Z,99.99
2022-11-15T03:56:46.092Z,99.99
2022-11-15T03:57:46.145Z,99.99
2022-11-15T03:58:46.139Z,99.99
2022-11-15T03:59:46.165Z,99.99
2022-11-15T04:00:46.223Z,99.99
2022-11-15T04:01:46.209Z,99.99
2022-11-15T04:02:46.232Z,99.99
2022-11-15T04:03:46.255Z,99.99
2022-11-15T04:04:46.277Z,99.99
2022-11-15T04:05:46.306Z,99.99
2022-11-15T04:06:46.412Z,99.99
2022-11-15T04:07:46.348Z,99.99
2022-11-15T04:08:46.367Z,99.99
2022-11-15T04:09:46.390Z,99.99
2022-11-15T04:10:46.415Z,99.99
2022-11-15T04:11:46.437Z,99.99
2022-11-15T04:12:46.461Z,99.99
2022-11-15T04:13:46.481Z,99.99
2022-11-15T04:14:46.507Z,99.99
2022-11-15T04:15:46.525Z,99.99
2022-11-15T04:16:46.556Z,99.99
2022-11-15T04:17:46.576Z,99.99
2022-11-15T04:18:46.597Z,99.99
2022-11-15T04:19:46.617Z,99.99
2022-11-15T04:20:46.645Z,99.99
2022-11-15T04:21:46.666Z,99.99
2022-11-15T04:22:46.688Z,99.99
2022-11-15T04:23:46.712Z,99.99
2022-11-15T04:24:46.736Z,99.99
2022-11-15T04:25:46.760Z,99.99
2022-11-15T04:26:46.781Z,99.99
2022-11-15T04:27:46.804Z,99.99
2022-11-15T04:28:46.828Z,99.99
2022-11-15T04:29:46.851Z,99.99
2022-11-15T04:30:46.895Z,99.99
2022-11-15T04:31:46.907Z,99.99
2022-11-15T04:32:46.915Z,99.99
2022-11-15T04:33:46.940Z,99.99
2022-11-15T04:34:46.965Z,99.99
2022-11-15T04:35:46.982Z,99.99
2022-11-15T04:36:47.011Z,99.99
2022-11-15T04:37:49.437Z,99.99
2022-11-15T04:38:47.055Z,99.99
2022-11-15T04:39:47.077Z,99.99
2022-11-15T04:40:47.102Z,99.99
2022-11-15T04:41:47.126Z,99.99
2022-11-15T04:42:47.147Z,99.99
2022-11-15T04:43:47.167Z,99.99
2022-11-15T04:44:47.198Z,99.99
2022-11-15T04:45:47.215Z,99.99
2022-11-15T04:46:47.238Z,99.99
2022-11-15T04:47:47.260Z,99.99
2022-11-15T04:48:47.280Z,99.99
2022-11-15T04:49:47.314Z,99.99
2022-11-15T04:50:47.329Z,99.99
2022-11-15T04:51:47.349Z,99.99
2022-11-15T04:52:47.374Z,99.99
2022-11-15T04:53:47.399Z,99.99
2022-11-15T04:54:47.421Z,99.99
2022-11-15T04:55:47.440Z,99.99
2022-11-15T04:56:47.469Z,99.99
2022-11-15T04:57:47.500Z,99.99
2022-11-15T04:58:47.510Z,99.99
2022-11-15T04:59:47.531Z,99.99
2022-11-15T05:00:47.604Z,99.99
2022-11-15T05:01:47.613Z,99.99
2022-11-15T05:02:47.601Z,99.99
2022-11-15T05:03:47.620Z,99.99
2022-11-15T05:04:47.647Z,99.99
2022-11-15T05:05:47.671Z,99.99
2022-11-15T05:06:47.752Z,99.99
2022-11-15T05:07:47.720Z,99.99
2022-11-15T05:08:47.733Z,99.99
2022-11-15T05:09:47.758Z,99.99
2022-11-15T05:10:47.781Z,99.99
2022-11-15T05:11:47.806Z,99.99
2022-11-15T05:12:47.827Z,99.99
2022-11-15T05:13:47.848Z,99.99
2022-11-15T05:14:47.876Z,99.99
2022-11-15T05:15:47.904Z,99.99
2022-11-15T05:16:47.919Z,99.99
2022-11-15T05:17:47.940Z,99.99
2022-11-15T05:18:47.961Z,99.99
2022-11-15T05:19:47.984Z,99.99
2022-11-15T05:20:48.009Z,99.99
2022-11-15T05:21:48.034Z,99.99
2022-11-15T05:22:48.054Z,99.99
2022-11-15T05:23:48.075Z,99.99
2022-11-15T05:24:48.100Z,99.99
2022-11-15T05:25:48.118Z,99.99
2022-11-15T05:26:48.149Z,99.99
2022-11-15T05:27:48.166Z,99.99
2022-11-15T05:28:48.191Z,99.99
2022-11-15T05:29:48.213Z,99.99
2022-11-15T05:30:48.237Z,99.99
2022-11-15T05:31:48.256Z,99.99
2022-11-15T05:32:48.281Z,99.99
2022-11-15T05:33:48.305Z,99.99
2022-11-15T05:34:48.329Z,99.99
2022-11-15T05:35:48.349Z,99.99
2022-11-15T05:36:48.378Z,99.99
2022-11-15T05:37:48.393Z,99.99
2022-11-15T05:38:48.418Z,99.99
2022-11-15T05:39:48.437Z,99.99
2022-11-15T05:40:48.463Z,99.99
2022-11-15T05:41:48.485Z,99.99
2022-11-15T05:42:48.505Z,99.99
2022-11-15T05:43:48.529Z,99.99
2022-11-15T05:44:48.553Z,99.99
2022-11-15T05:45:48.578Z,99.99
2022-11-15T05:46:48.598Z,99.99
2022-11-15T05:47:48.619Z,99.99
2022-11-15T05:48:48.641Z,99.99
2022-11-15T05:49:48.783Z,99.99
2022-11-15T05:50:48.695Z,99.99
2022-11-15T05:51:48.707Z,99.99
2022-11-15T05:52:48.733Z,99.99
2022-11-15T05:53:48.803Z,99.99
2022-11-15T05:54:48.779Z,99.99
2022-11-15T05:55:48.801Z,99.99
2022-11-15T05:56:48.824Z,99.99
2022-11-15T05:57:48.844Z,99.99
2022-11-15T05:58:48.868Z,99.99
2022-11-15T05:59:48.888Z,99.99
2022-11-15T06:00:48.914Z,99.99
2022-11-15T06:01:48.972Z,99.99
2022-11-15T06:02:48.957Z,99.99
2022-11-15T06:03:48.979Z,99.99
2022-11-15T06:04:49.003Z,99.99
2022-11-15T06:05:49.042Z,99.99
2022-11-15T06:06:49.088Z,99.99
2022-11-15T06:07:49.070Z,99.99
2022-11-15T06:08:49.105Z,99.99
2022-11-15T06:09:49.116Z,99.99
2022-11-15T06:10:49.141Z,99.99
2022-11-15T06:11:49.163Z,99.99
2022-11-15T06:12:49.183Z,99.99
2022-11-15T06:13:49.206Z,99.99
2022-11-15T06:14:49.230Z,99.99
2022-11-15T06:15:49.245Z,99.99
2022-11-15T06:16:49.277Z,99.99
2022-11-15T06:17:49.296Z,99.99
2022-11-15T06:18:49.320Z,99.99
2022-11-15T06:19:49.340Z,99.99
2022-11-15T06:20:49.368Z,99.99
2022-11-15T06:21:49.386Z,99.99
2022-11-15T06:22:49.406Z,99.99
2022-11-15T06:23:49.432Z,99.99
2022-11-15T06:24:49.453Z,99.99
2022-11-15T06:25:49.476Z,99.99
2022-11-15T06:26:49.499Z,99.99
2022-11-15T06:27:49.518Z,99.99
2022-11-15T06:28:49.542Z,99.99
2022-11-15T06:29:49.563Z,99.99
2022-11-15T06:30:53.173Z,99.99
2022-11-15T06:31:49.611Z,99.99
2022-11-15T06:32:49.638Z,99.99
2022-11-15T06:33:49.656Z,99.99
2022-11-15T06:34:49.682Z,99.99
2022-11-15T06:35:49.705Z,99.99
2022-11-15T06:36:49.730Z,99.99
2022-11-15T06:37:49.801Z,99.99
2022-11-15T06:38:49.769Z,99.99
2022-11-15T06:39:49.788Z,99.99
2022-11-15T06:40:49.818Z,99.99
2022-11-15T06:41:49.838Z,99.99
2022-11-15T06:42:49.858Z,99.99
2022-11-15T06:43:49.882Z,99.99
2022-11-15T06:44:49.905Z,99.99
2022-11-15T06:45:49.928Z,99.99
2022-11-15T06:46:49.954Z,99.99
2022-11-15T06:47:49.973Z,99.99
2022-11-15T06:48:50.002Z,99.99
2022-11-15T06:49:50.036Z,99.99
2022-11-15T06:50:50.041Z,99.99
2022-11-15T06:51:50.064Z,99.99
2022-11-15T06:52:50.089Z,99.99
2022-11-15T06:53:50.239Z,99.99
2022-11-15T06:54:57.309Z,99.99
2022-11-15T06:56:55.120Z,99.99
2022-11-15T06:57:54.654Z,99.99
2022-11-15T06:58:54.685Z,99.99
2022-11-15T06:59:54.700Z,99.99
2022-11-15T07:00:54.763Z,99.99
2022-11-15T07:01:54.749Z,99.99
2022-11-15T07:02:54.765Z,99.99
2022-11-15T07:03:54.788Z,99.99
2022-11-15T07:04:54.816Z,99.99
2022-11-15T07:05:54.830Z,99.99
2022-11-15T07:06:54.927Z,99.99
2022-11-15T07:07:54.882Z,99.99
2022-11-15T07:08:54.907Z,99.99
2022-11-15T07:09:54.924Z,99.99
2022-11-15T07:10:54.951Z,99.99
2022-11-15T07:11:54.980Z,99.99
2022-11-15T07:12:54.992Z,99.99
2022-11-15T07:13:55.018Z,99.99
2022-11-15T07:14:55.061Z,99.99
2022-11-15T07:15:55.061Z,99.99
2022-11-15T07:16:55.087Z,99.99
2022-11-15T07:17:55.104Z,99.99
2022-11-15T07:18:55.156Z,99.99
2022-11-15T07:19:55.149Z,99.99
2022-11-15T07:20:55.195Z,99.99
2022-11-15T07:21:55.201Z,99.99
2022-11-15T07:22:55.219Z,99.99
2022-11-15T07:23:55.246Z,99.99
2022-11-15T07:24:55.272Z,99.99
2022-11-15T07:25:55.310Z,99.99
2022-11-15T07:26:55.312Z,99.99
2022-11-15T07:27:55.337Z,99.99
2022-11-15T07:28:55.357Z,99.99
2022-11-15T07:29:55.383Z,99.99
2022-11-15T07:30:55.459Z,99.99
2022-11-15T07:31:55.429Z,99.99
2022-11-15T07:32:55.450Z,99.99
2022-11-15T07:33:55.496Z,99.99
2022-11-15T07:34:55.497Z,99.99
2022-11-15T07:35:55.514Z,99.99
2022-11-15T07:36:55.539Z,99.99
2022-11-15T07:37:55.570Z,99.99
2022-11-15T07:38:55.587Z,99.99
2022-11-15T07:39:55.610Z,99.99
2022-11-15T07:40:55.644Z,99.99
2022-11-15T07:41:55.650Z,99.99
2022-11-15T07:42:55.679Z,99.99
2022-11-15T07:43:55.701Z,99.99
2022-11-15T07:44:55.723Z,99.99
2022-11-15T07:45:59.060Z,99.99
2022-11-15T07:46:55.771Z,99.99
2022-11-15T07:47:55.792Z,99.99
2022-11-15T07:48:55.828Z,99.99
2022-11-15T07:49:55.844Z,99.99
2022-11-15T07:50:55.864Z,99.99
2022-11-15T07:51:55.882Z,99.99
2022-11-15T07:52:55.912Z,99.99
2022-11-15T07:53:55.943Z,99.99
2022-11-15T07:54:55.955Z,99.99
2022-11-15T07:55:55.978Z,99.99
2022-11-15T07:56:56.002Z,99.99
2022-11-15T07:57:56.027Z,99.99
2022-11-15T07:58:56.050Z,99.99
2022-11-15T07:59:56.079Z,99.99
2022-11-15T08:00:56.148Z,99.99
2022-11-15T08:01:56.201Z,99.99
2022-11-15T08:02:56.246Z,99.99
2022-11-15T08:03:56.175Z,99.99
2022-11-15T08:04:56.201Z,99.99
2022-11-15T08:05:56.209Z,99.99
2022-11-15T08:06:56.283Z,99.99
2022-11-15T08:07:56.257Z,99.99
2022-11-15T08:08:56.281Z,99.99
2022-11-15T08:09:56.303Z,99.99
2022-11-15T08:10:56.331Z,99.99
2022-11-15T08:11:56.351Z,99.99
2022-11-15T08:12:56.491Z,99.99
2022-11-15T08:13:56.399Z,99.99
2022-11-15T08:14:56.420Z,99.99
2022-11-15T08:15:57.952Z,99.99
2022-11-15T08:16:56.475Z,99.99
2022-11-15T08:17:56.499Z,99.99
2022-11-15T08:18:56.513Z,99.99
2022-11-15T08:19:56.539Z,99.99
2022-11-15T08:20:56.580Z,99.99
2022-11-15T08:21:56.583Z,99.99
2022-11-15T08:22:56.605Z,99.99
2022-11-15T08:23:56.640Z,99.99
2022-11-15T08:24:56.654Z,99.99
2022-11-15T08:25:56.686Z,99.99
2022-11-15T08:26:56.737Z,99.99
2022-11-15T08:27:56.727Z,99.99
2022-11-15T08:28:56.754Z,99.99
2022-11-15T08:29:59.452Z,99.99
2022-11-15T08:30:56.798Z,99.99
2022-11-15T08:31:56.824Z,99.99
2022-11-15T08:32:56.844Z,99.99
2022-11-15T08:33:56.865Z,99.99
2022-11-15T08:34:56.887Z,99.99
2022-11-15T08:35:56.940Z,99.99
2022-11-15T08:36:56.942Z,99.99
2022-11-15T08:37:56.964Z,99.99
2022-11-15T08:38:57.008Z,99.99
2022-11-15T08:39:57.012Z,99.99
2022-11-15T08:40:57.032Z,99.99
2022-11-15T08:41:57.065Z,99.99
2022-11-15T08:42:57.082Z,99.99
2022-11-15T08:43:57.122Z,99.99
2022-11-15T08:44:57.137Z,99.99
2022-11-15T08:45:57.160Z,99.99
2022-11-15T08:46:57.178Z,99.99
2022-11-15T08:47:57.203Z,99.76
2022-11-15T08:48:57.231Z,99.99
2022-11-15T08:49:57.278Z,99.99
2022-11-15T08:50:57.274Z,99.67
2022-11-15T08:51:57.311Z,99.86
2022-11-15T08:52:57.328Z,99.86
2022-11-15T08:53:57.356Z,99.96
2022-11-15T08:54:57.376Z,99.99
2022-11-15T08:55:57.401Z,99.67
2022-11-15T08:56:57.424Z,99.52
2022-11-15T08:57:57.447Z,99.29
2022-11-15T08:58:57.475Z,98.95
2022-11-15T08:59:57.500Z,98.28
2022-11-15T09:00:57.526Z,98.09
2022-11-15T09:01:57.643Z,98.19
2022-11-15T09:02:57.570Z,97.52
2022-11-15T09:03:57.594Z,96.56
2022-11-15T09:04:57.618Z,95.98
2022-11-15T09:05:57.645Z,95.79
2022-11-15T09:06:57.788Z,95.12
2022-11-15T09:07:57.691Z,94.26
2022-11-15T09:08:57.815Z,94.26
2022-11-15T09:09:57.760Z,93.59
2022-11-15T09:10:57.782Z,93.02
2022-11-15T09:12:01.307Z,92.30
2022-11-15T09:12:57.823Z,91.63
2022-11-15T09:13:57.843Z,90.77
2022-11-15T09:14:57.900Z,90.39
2022-11-15T09:15:57.893Z,89.81
2022-11-15T09:16:57.928Z,89.33
2022-11-15T09:17:57.948Z,88.66
2022-11-15T09:18:57.976Z,88.85
2022-11-15T09:19:58.003Z,87.99
2022-11-15T09:20:58.013Z,87.55
2022-11-15T09:21:58.043Z,87.55
2022-11-15T09:22:58.065Z,87.46
2022-11-15T09:23:58.094Z,86.65
2022-11-15T09:24:58.116Z,86.79
2022-11-15T09:25:58.139Z,86.60
2022-11-15T09:26:58.166Z,86.46
2022-11-15T09:27:58.191Z,86.46
2022-11-15T09:28:58.217Z,86.27
2022-11-15T09:29:58.241Z,86.84
2022-11-15T09:30:58.269Z,86.46
2022-11-15T09:31:58.291Z,86.46
2022-11-15T09:32:58.752Z,86.84
2022-11-15T09:33:58.343Z,86.46
2022-11-15T09:34:58.365Z,87.13
2022-11-15T09:35:58.410Z,85.50
2022-11-15T09:36:58.412Z,85.79
2022-11-15T09:37:58.441Z,85.88
2022-11-15T09:38:58.465Z,85.88
2022-11-15T09:39:58.495Z,86.17
2022-11-15T09:40:58.512Z,86.55
2022-11-15T09:41:58.540Z,87.13
2022-11-15T09:42:58.585Z,86.55
2022-11-15T09:43:58.586Z,86.94
2022-11-15T09:44:58.615Z,86.94
2022-11-15T09:45:58.642Z,86.17
2022-11-15T09:46:58.661Z,86.36
2022-11-15T09:47:58.688Z,86.17
2022-11-15T09:48:58.728Z,86.36
2022-11-15T09:49:58.737Z,87.03
2022-11-15T09:50:58.767Z,86.65
2022-11-15T09:51:58.790Z,86.94
2022-11-15T09:52:58.815Z,86.74
2022-11-15T09:54:58.864Z,86.74
2022-11-15T09:55:58.892Z,86.94
2022-11-15T09:56:58.920Z,86.74
2022-11-15T09:57:58.937Z,86.74
2022-11-15T09:58:58.962Z,86.55
2022-11-15T10:00:07.692Z,86.94
2022-11-15T10:00:59.037Z,85.79
2022-11-15T10:01:59.038Z,85.88
2022-11-15T10:02:59.060Z,85.79
2022-11-15T10:03:59.108Z,85.79
2022-11-15T10:04:59.116Z,85.79
2022-11-15T10:05:59.138Z,84.92
2022-11-15T10:06:59.269Z,84.92
2022-11-15T10:07:59.184Z,84.64
2022-11-15T10:08:59.210Z,85.21
2022-11-15T10:09:59.237Z,84.92
2022-11-15T10:11:22.750Z,84.88
2022-11-15T10:11:59.287Z,84.58
2022-11-15T10:12:59.311Z,83.97
2022-11-15T10:13:59.333Z,84.30
2022-11-15T10:14:59.363Z,84.30
2022-11-15T10:15:59.387Z,84.11
2022-11-15T10:16:59.408Z,83.44
2022-11-15T10:17:59.436Z,83.34
2022-11-15T10:18:59.463Z,83.25
2022-11-15T10:20:05.045Z,83.25
2022-11-15T10:20:59.512Z,83.34
2022-11-15T10:21:59.538Z,82.76
2022-11-15T10:22:59.560Z,82.67
2022-11-15T10:23:59.589Z,82.76
2022-11-15T10:24:59.627Z,82.67
2022-11-15T10:26:03.811Z,82.09
2022-11-15T10:26:59.662Z,81.33
2022-11-15T10:27:59.683Z,81.23
2022-11-15T10:28:59.713Z,80.94
2022-11-15T10:29:59.748Z,81.43
2022-11-15T10:30:59.759Z,81.43
2022-11-15T10:31:59.785Z,80.56
2022-11-15T10:32:59.814Z,80.99
2022-11-15T10:33:59.844Z,80.94
2022-11-15T10:34:59.866Z,80.89
2022-11-15T10:35:59.889Z,80.22
2022-11-15T10:36:59.919Z,80.41
2022-11-15T10:37:59.936Z,80.18
2022-11-15T10:38:59.963Z,80.70
2022-11-15T10:39:59.994Z,80.47
2022-11-15T10:41:00.066Z,80.22
2022-11-15T10:42:01.106Z,80.12
2022-11-15T10:43:00.079Z,79.55
2022-11-15T10:44:00.092Z,78.93
2022-11-15T10:45:00.121Z,78.40
2022-11-15T10:46:13.579Z,78.30
2022-11-15T10:47:00.163Z,78.64
2022-11-15T10:48:00.197Z,78.02
2022-11-15T10:49:00.217Z,77.69
2022-11-15T10:50:00.252Z,78.02
2022-11-15T10:51:00.270Z,78.11
2022-11-15T10:52:00.297Z,78.11
2022-11-15T10:53:00.321Z,77.63
2022-11-15T10:54:00.342Z,77.15
2022-11-15T10:55:00.377Z,77.15
2022-11-15T10:56:00.407Z,76.73
2022-11-15T10:57:00.421Z,77.06
2022-11-15T10:58:00.447Z,77.06
2022-11-15T10:59:00.475Z,77.63
2022-11-15T11:00:00.501Z,77.44
2022-11-15T11:01:00.564Z,76.96
2022-11-15T11:02:00.552Z,77.15
2022-11-15T11:03:00.579Z,76.57
2022-11-15T11:04:00.604Z,76.86
2022-11-15T11:05:00.626Z,76.67
2022-11-15T11:06:00.650Z,76.57
2022-11-15T11:07:00.759Z,76.96
2022-11-15T11:08:00.704Z,76.29
2022-11-15T11:09:00.734Z,75.90
2022-11-15T11:10:00.757Z,76.00
2022-11-15T11:11:03.117Z,76.86
2022-11-15T11:12:00.804Z,76.19
2022-11-15T11:13:00.872Z,76.29
2022-11-15T11:14:00.856Z,76.48
2022-11-15T11:15:00.881Z,75.81
2022-11-15T11:16:00.903Z,75.90
2022-11-15T11:17:00.932Z,75.52
2022-11-15T11:18:00.972Z,75.04
2022-11-15T11:19:00.981Z,75.23
2022-11-15T11:20:01.005Z,75.23
2022-11-15T11:21:01.030Z,75.08
2022-11-15T11:22:01.057Z,75.33
2022-11-15T11:23:01.082Z,75.04
2022-11-15T11:24:01.113Z,75.62
2022-11-15T11:25:01.136Z,75.04
2022-11-15T11:26:01.161Z,75.37
2022-11-15T11:27:01.182Z,75.04
2022-11-15T11:28:01.233Z,74.47
2022-11-15T11:29:01.238Z,74.27
2022-11-15T11:30:01.261Z,74.60
2022-11-15T11:31:01.298Z,75.37
2022-11-15T11:32:01.322Z,74.31
2022-11-15T11:33:01.338Z,74.41
2022-11-15T11:34:01.363Z,74.89
2022-11-15T11:35:01.403Z,74.79
2022-11-15T11:36:01.417Z,74.98
2022-11-15T11:37:01.440Z,75.08
2022-11-15T11:38:01.468Z,74.41
2022-11-15T11:39:01.494Z,74.31
2022-11-15T11:40:03.029Z,73.93
2022-11-15T11:41:01.546Z,73.83
2022-11-15T11:42:01.573Z,73.74
2022-11-15T11:43:01.593Z,73.99
2022-11-15T11:44:01.622Z,74.22
2022-11-15T11:45:01.647Z,72.94
2022-11-15T11:46:01.677Z,73.03
2022-11-15T11:47:01.695Z,73.22
2022-11-15T11:48:01.746Z,73.51
2022-11-15T11:49:01.747Z,73.51
2022-11-15T11:50:01.776Z,73.61
2022-11-15T11:51:01.802Z,73.13
2022-11-15T11:52:01.828Z,73.32
2022-11-15T11:53:04.191Z,73.32
2022-11-15T11:54:01.880Z,73.13
2022-11-15T11:55:01.907Z,73.80
2022-11-15T11:56:01.928Z,73.51
2022-11-15T11:57:01.953Z,73.90
2022-11-15T11:58:01.974Z,73.80
2022-11-15T11:59:02.001Z,73.99
2022-11-15T12:00:02.026Z,73.32
2022-11-15T12:01:02.056Z,73.22
2022-11-15T12:02:02.164Z,72.94
2022-11-15T12:03:02.302Z,73.51
2022-11-15T12:04:02.129Z,73.80
2022-11-15T12:05:02.162Z,73.13
2022-11-15T12:06:02.181Z,73.32
2022-11-15T12:07:02.388Z,73.51
2022-11-15T12:08:04.207Z,73.51
2022-11-15T12:09:02.258Z,73.03
2022-11-15T12:10:02.278Z,72.55
2022-11-15T12:11:02.302Z,72.94
2022-11-15T12:12:02.344Z,73.47
2022-11-15T12:13:02.360Z,73.28
2022-11-15T12:14:02.380Z,73.03
2022-11-15T12:15:02.405Z,73.80
2022-11-15T12:16:06.082Z,73.61
2022-11-15T12:17:02.461Z,74.57
2022-11-15T12:18:02.481Z,73.61
2022-11-15T12:19:02.509Z,74.08
2022-11-15T12:20:02.528Z,74.57
2022-11-15T12:21:02.556Z,74.37
2022-11-15T12:22:02.582Z,74.37
2022-11-15T12:23:02.612Z,74.18
2022-11-15T12:24:02.635Z,74.37
2022-11-15T12:25:02.658Z,73.99
2022-11-15T12:26:02.681Z,74.18
2022-11-15T12:27:02.708Z,73.99
2022-11-15T12:28:02.759Z,74.08
2022-11-15T12:29:07.964Z,74.27
2022-11-15T12:30:02.784Z,73.41
2022-11-15T12:31:02.808Z,73.80
2022-11-15T12:32:02.836Z,73.61
2022-11-15T12:33:02.859Z,73.90
2022-11-15T12:34:07.091Z,73.13
2022-11-15T12:35:02.904Z,73.32
2022-11-15T12:36:02.933Z,73.38
2022-11-15T12:37:02.954Z,73.28
2022-11-15T12:38:02.983Z,73.03
2022-11-15T12:39:03.008Z,73.90
2022-11-15T12:40:04.213Z,73.28
2022-11-15T12:41:03.060Z,73.22
2022-11-15T12:42:03.083Z,73.28
2022-11-15T12:43:03.119Z,73.32
2022-11-15T12:44:03.133Z,73.28
2022-11-15T12:45:03.169Z,73.57
2022-11-15T12:46:03.180Z,73.09
2022-11-15T12:47:03.225Z,73.38
2022-11-15T12:48:03.230Z,73.09
2022-11-15T12:49:03.259Z,72.90
2022-11-15T12:50:03.282Z,73.28
2022-11-15T12:51:03.309Z,72.99
2022-11-15T12:52:03.331Z,73.19
2022-11-15T12:53:03.362Z,73.38
2022-11-15T12:54:03.383Z,73.47
2022-11-15T12:55:03.408Z,73.09
2022-11-15T12:56:03.430Z,72.90
2022-11-15T12:57:03.462Z,73.28
2022-11-15T12:58:03.479Z,73.19
2022-11-15T12:59:03.505Z,73.47
2022-11-15T13:00:03.543Z,72.99
2022-11-15T13:01:03.651Z,73.09
2022-11-15T13:02:03.581Z,73.66
2022-11-15T13:03:03.607Z,73.13
2022-11-15T13:04:03.649Z,73.28
2022-11-15T13:05:03.659Z,73.38
2022-11-15T13:06:03.685Z,73.51
2022-11-15T13:07:03.747Z,73.38
2022-11-15T13:08:03.738Z,73.47
2022-11-15T13:09:03.763Z,73.19
2022-11-15T13:10:03.784Z,72.99
2022-11-15T13:11:03.811Z,73.28
2022-11-15T13:12:03.833Z,73.28
2022-11-15T13:13:03.860Z,73.19
2022-11-15T13:14:03.880Z,73.57
2022-11-15T13:15:03.908Z,73.47
2022-11-15T13:16:03.932Z,72.99
2022-11-15T13:17:03.958Z,72.90
2022-11-15T13:18:03.982Z,72.90
2022-11-15T13:19:04.011Z,72.90
2022-11-15T13:20:04.035Z,73.28
2022-11-15T13:21:04.066Z,72.90
2022-11-15T13:22:04.083Z,72.32
2022-11-15T13:23:04.113Z,72.71
2022-11-15T13:24:04.135Z,71.94
2022-11-15T13:25:04.163Z,72.13
2022-11-15T13:26:04.183Z,72.42
2022-11-15T13:27:04.209Z,72.03
2022-11-15T13:28:07.956Z,72.32
2022-11-15T13:29:04.258Z,72.23
2022-11-15T13:30:04.281Z,71.84
2022-11-15T13:31:04.308Z,72.03
2022-11-15T13:32:04.331Z,72.03
2022-11-15T13:33:04.367Z,72.03
2022-11-15T13:34:17.729Z,71.84
2022-11-15T13:35:04.407Z,72.52